ASA67 PAKT-PASI
Flight info
| Callsign | ASA67 |
|---|---|
| Flight time | 0h 37m |
| Altitude | 28000 |
| Route | UDENE3 FLIPS |
| Aircraft | B737/M-SDE2E3FGHIRWXY/LB1 |
Departure
| Time | 2026-04-21 17:48 |
|---|---|
| Airport | Ketchikan International Airport (PAKT) |
Arrival
| Time | 2026-04-21 18:26 |
|---|---|
| Airport | Sitka Rocky Gutierrez Airport (PASI) |
| Time | Latitude | Longitude | Altitude | Speed | Heading |
|---|---|---|---|---|---|
| 2026-04-21 17:23 | 55.35662 | -131.71030 | 41 ft | 0 kts | 45° |
| 2026-04-21 17:40 | 55.35660 | -131.71033 | 41 ft | 2 kts | 45° |
| 2026-04-21 17:40 | 55.35651 | -131.71049 | 38 ft | 2 kts | 45° |
| 2026-04-21 17:41 | 55.35641 | -131.71066 | 39 ft | 2 kts | 45° |
| 2026-04-21 17:41 | 55.35630 | -131.71084 | 40 ft | 2 kts | 45° |
| 2026-04-21 17:41 | 55.35620 | -131.71102 | 41 ft | 2 kts | 48° |
| 2026-04-21 17:41 | 55.35612 | -131.71123 | 41 ft | 2 kts | 70° |
| 2026-04-21 17:42 | 55.35610 | -131.71148 | 41 ft | 2 kts | 114° |
| 2026-04-21 17:42 | 55.35618 | -131.71166 | 41 ft | 0 kts | 135° |
| 2026-04-21 17:43 | 55.35609 | -131.71152 | 40 ft | 4 kts | 135° |
| 2026-04-21 17:43 | 55.35578 | -131.71099 | 41 ft | 9 kts | 135° |
| 2026-04-21 17:44 | 55.35521 | -131.71002 | 38 ft | 14 kts | 136° |
| 2026-04-21 17:44 | 55.35440 | -131.70863 | 39 ft | 19 kts | 135° |
| 2026-04-21 17:44 | 55.35348 | -131.70704 | 52 ft | 18 kts | 135° |
| 2026-04-21 17:44 | 55.35257 | -131.70552 | 69 ft | 18 kts | 137° |
| 2026-04-21 17:45 | 55.35167 | -131.70409 | 89 ft | 17 kts | 137° |
| 2026-04-21 17:45 | 55.35081 | -131.70271 | 97 ft | 16 kts | 138° |
| 2026-04-21 17:45 | 55.35003 | -131.70146 | 99 ft | 13 kts | 138° |
| 2026-04-21 17:45 | 55.34942 | -131.70050 | 100 ft | 9 kts | 143° |
| 2026-04-21 17:46 | 55.34886 | -131.70036 | 98 ft | 8 kts | 206° |
| 2026-04-21 17:46 | 55.34863 | -131.70065 | 100 ft | 4 kts | 218° |
| 2026-04-21 17:46 | 55.34843 | -131.70090 | 99 ft | 4 kts | 208° |
| 2026-04-21 17:46 | 55.34809 | -131.70066 | 99 ft | 8 kts | 135° |
| 2026-04-21 17:47 | 55.34757 | -131.69978 | 97 ft | 11 kts | 136° |
| 2026-04-21 17:47 | 55.34708 | -131.69887 | 97 ft | 6 kts | 133° |
| 2026-04-21 17:47 | 55.34694 | -131.69890 | 99 ft | 1 kts | 248° |
| 2026-04-21 17:47 | 55.34700 | -131.69905 | 99 ft | 2 kts | 309° |
| 2026-04-21 17:48 | 55.34706 | -131.69915 | 98 ft | 2 kts | 314° |
| 2026-04-21 17:48 | 55.34976 | -131.70380 | 99 ft | 96 kts | 315° |
| 2026-04-21 17:48 | 55.35624 | -131.71499 | 235 ft | 154 kts | 317° |
| 2026-04-21 17:48 | 55.36418 | -131.72886 | 1064 ft | 166 kts | 316° |
| 2026-04-21 17:49 | 55.37244 | -131.74348 | 2186 ft | 172 kts | 315° |
| 2026-04-21 17:49 | 55.38145 | -131.75938 | 2893 ft | 195 kts | 317° |
| 2026-04-21 17:49 | 55.39180 | -131.77721 | 3553 ft | 223 kts | 316° |
| 2026-04-21 17:49 | 55.40355 | -131.79750 | 4295 ft | 241 kts | 316° |
| 2026-04-21 17:50 | 55.41559 | -131.81834 | 5527 ft | 243 kts | 316° |
| 2026-04-21 17:50 | 55.42781 | -131.83936 | 6662 ft | 249 kts | 315° |
| 2026-04-21 17:50 | 55.44025 | -131.86065 | 7863 ft | 248 kts | 315° |
| 2026-04-21 17:50 | 55.45260 | -131.88176 | 9071 ft | 249 kts | 314° |
| 2026-04-21 17:51 | 55.46511 | -131.90313 | 10178 ft | 252 kts | 313° |
| 2026-04-21 17:51 | 55.47747 | -131.92623 | 10764 ft | 272 kts | 303° |
| 2026-04-21 17:51 | 55.48598 | -131.95769 | 11161 ft | 294 kts | 291° |
| 2026-04-21 17:51 | 55.49349 | -131.99151 | 12117 ft | 298 kts | 290° |
| 2026-04-21 17:52 | 55.50096 | -132.02555 | 13237 ft | 298 kts | 290° |
| 2026-04-21 17:52 | 55.50846 | -132.05972 | 14334 ft | 299 kts | 290° |
| 2026-04-21 17:52 | 55.51595 | -132.09376 | 15261 ft | 304 kts | 290° |
| 2026-04-21 17:52 | 55.52367 | -132.12877 | 16201 ft | 309 kts | 290° |
| 2026-04-21 17:53 | 55.53153 | -132.16435 | 17159 ft | 313 kts | 290° |
| 2026-04-21 17:53 | 55.53951 | -132.20044 | 18116 ft | 318 kts | 290° |
| 2026-04-21 17:53 | 55.54761 | -132.23711 | 18967 ft | 323 kts | 290° |
| 2026-04-21 17:53 | 55.55581 | -132.27429 | 19784 ft | 327 kts | 290° |
| 2026-04-21 17:54 | 55.56415 | -132.31207 | 20596 ft | 332 kts | 290° |
| 2026-04-21 17:54 | 55.57254 | -132.35018 | 21447 ft | 335 kts | 290° |
| 2026-04-21 17:54 | 55.58104 | -132.38882 | 22334 ft | 337 kts | 290° |
| 2026-04-21 17:54 | 55.58950 | -132.42722 | 23428 ft | 334 kts | 290° |
| 2026-04-21 17:55 | 55.59786 | -132.46540 | 24364 ft | 332 kts | 290° |
| 2026-04-21 17:55 | 55.60617 | -132.50346 | 25176 ft | 333 kts | 290° |
| 2026-04-21 17:55 | 55.61450 | -132.54170 | 25971 ft | 333 kts | 290° |
| 2026-04-21 17:55 | 55.62281 | -132.57987 | 26827 ft | 332 kts | 290° |
| 2026-04-21 17:56 | 55.63111 | -132.61805 | 27644 ft | 333 kts | 290° |
| 2026-04-21 17:56 | 55.63932 | -132.65589 | 28028 ft | 333 kts | 290° |
| 2026-04-21 17:56 | 55.65590 | -132.73249 | 28123 ft | 332 kts | 290° |
| 2026-04-21 17:57 | 55.67235 | -132.80868 | 28127 ft | 333 kts | 289° |
| 2026-04-21 17:57 | 55.68889 | -132.88530 | 28126 ft | 333 kts | 292° |
| 2026-04-21 17:58 | 55.70066 | -132.92075 | 28116 ft | 336 kts | 305° |
| 2026-04-21 17:58 | 55.71568 | -132.95284 | 28136 ft | 336 kts | 307° |
| 2026-04-21 17:58 | 55.74549 | -133.01598 | 28134 ft | 337 kts | 307° |
| 2026-04-21 17:59 | 55.77542 | -133.08033 | 28126 ft | 338 kts | 307° |
| 2026-04-21 17:59 | 55.80534 | -133.14503 | 28126 ft | 338 kts | 307° |
| 2026-04-21 18:00 | 55.83511 | -133.20976 | 28116 ft | 338 kts | 306° |
| 2026-04-21 18:00 | 55.86483 | -133.27455 | 28125 ft | 337 kts | 306° |
| 2026-04-21 18:01 | 55.89444 | -133.33932 | 28124 ft | 337 kts | 307° |
| 2026-04-21 18:01 | 55.92395 | -133.40402 | 28114 ft | 336 kts | 307° |
| 2026-04-21 18:02 | 55.95331 | -133.46858 | 28114 ft | 335 kts | 307° |
| 2026-04-21 18:02 | 55.98267 | -133.53333 | 28106 ft | 335 kts | 307° |
| 2026-04-21 18:03 | 56.01194 | -133.59802 | 28114 ft | 334 kts | 307° |
| 2026-04-21 18:03 | 56.02643 | -133.63013 | 27728 ft | 338 kts | 307° |
| 2026-04-21 18:03 | 56.04119 | -133.66290 | 27210 ft | 339 kts | 307° |
| 2026-04-21 18:04 | 56.05589 | -133.69556 | 26769 ft | 334 kts | 307° |
| 2026-04-21 18:04 | 56.07034 | -133.72770 | 26270 ft | 330 kts | 307° |
| 2026-04-21 18:04 | 56.08465 | -133.75956 | 25781 ft | 326 kts | 307° |
| 2026-04-21 18:04 | 56.09403 | -133.78046 | 25456 ft | 324 kts | 307° |
| 2026-04-21 18:05 | 56.11275 | -133.82225 | 24820 ft | 319 kts | 307° |
| 2026-04-21 18:05 | 56.12191 | -133.84273 | 24508 ft | 317 kts | 307° |
| 2026-04-21 18:05 | 56.13562 | -133.87341 | 24040 ft | 314 kts | 307° |
| 2026-04-21 18:05 | 56.14920 | -133.90385 | 23549 ft | 311 kts | 307° |
| 2026-04-21 18:06 | 56.16262 | -133.93396 | 23002 ft | 308 kts | 307° |
| 2026-04-21 18:06 | 56.17589 | -133.96376 | 22540 ft | 302 kts | 307° |
| 2026-04-21 18:06 | 56.18886 | -133.99313 | 22064 ft | 298 kts | 307° |
| 2026-04-21 18:06 | 56.20171 | -134.02208 | 21603 ft | 295 kts | 307° |
| 2026-04-21 18:07 | 56.21441 | -134.05081 | 21147 ft | 292 kts | 307° |
| 2026-04-21 18:07 | 56.22703 | -134.07924 | 20686 ft | 289 kts | 307° |
| 2026-04-21 18:07 | 56.23938 | -134.10703 | 20249 ft | 287 kts | 307° |
| 2026-04-21 18:07 | 56.25175 | -134.13496 | 19787 ft | 284 kts | 307° |
| 2026-04-21 18:08 | 56.26357 | -134.16337 | 19321 ft | 283 kts | 307° |
| 2026-04-21 18:08 | 56.27553 | -134.19134 | 18894 ft | 282 kts | 307° |
| 2026-04-21 18:08 | 56.28810 | -134.21843 | 18459 ft | 280 kts | 308° |
| 2026-04-21 18:08 | 56.30037 | -134.24558 | 17952 ft | 279 kts | 306° |
| 2026-04-21 18:09 | 56.31223 | -134.27298 | 17483 ft | 276 kts | 307° |
| 2026-04-21 18:09 | 56.32416 | -134.29993 | 17021 ft | 273 kts | 307° |
| 2026-04-21 18:09 | 56.33590 | -134.32653 | 16593 ft | 270 kts | 307° |
| 2026-04-21 18:09 | 56.34753 | -134.35296 | 16152 ft | 268 kts | 307° |
| 2026-04-21 18:10 | 56.35905 | -134.37920 | 15714 ft | 266 kts | 307° |
| 2026-04-21 18:10 | 56.37050 | -134.40534 | 15218 ft | 266 kts | 307° |
| 2026-04-21 18:10 | 56.38193 | -134.43148 | 14766 ft | 265 kts | 307° |
| 2026-04-21 18:10 | 56.39333 | -134.45760 | 14322 ft | 264 kts | 307° |
| 2026-04-21 18:11 | 56.40467 | -134.48363 | 13884 ft | 263 kts | 307° |
| 2026-04-21 18:11 | 56.41595 | -134.50954 | 13400 ft | 262 kts | 307° |
| 2026-04-21 18:11 | 56.42719 | -134.53537 | 12948 ft | 260 kts | 307° |
| 2026-04-21 18:11 | 56.43833 | -134.56103 | 12511 ft | 259 kts | 307° |
| 2026-04-21 18:12 | 56.44941 | -134.58657 | 12091 ft | 257 kts | 307° |
| 2026-04-21 18:12 | 56.46040 | -134.61193 | 11664 ft | 256 kts | 307° |
| 2026-04-21 18:12 | 56.47120 | -134.63688 | 11235 ft | 255 kts | 307° |
| 2026-04-21 18:12 | 56.48210 | -134.66203 | 10821 ft | 253 kts | 307° |
| 2026-04-21 18:13 | 56.49294 | -134.68707 | 10401 ft | 252 kts | 308° |
| 2026-04-21 18:13 | 56.50389 | -134.71147 | 10178 ft | 247 kts | 306° |
| 2026-04-21 18:13 | 56.51448 | -134.73606 | 10063 ft | 247 kts | 306° |
| 2026-04-21 18:13 | 56.52501 | -134.76097 | 9744 ft | 251 kts | 306° |
| 2026-04-21 18:14 | 56.54647 | -134.81134 | 8958 ft | 248 kts | 307° |
| 2026-04-21 18:14 | 56.55686 | -134.83603 | 8572 ft | 246 kts | 307° |
| 2026-04-21 18:14 | 56.56725 | -134.86014 | 8266 ft | 240 kts | 306° |
| 2026-04-21 18:15 | 56.57723 | -134.88467 | 8001 ft | 241 kts | 306° |
| 2026-04-21 18:15 | 56.58738 | -134.90831 | 7930 ft | 235 kts | 308° |
| 2026-04-21 18:15 | 56.59773 | -134.93192 | 7725 ft | 240 kts | 307° |
| 2026-04-21 18:15 | 56.60801 | -134.95577 | 7678 ft | 241 kts | 306° |
| 2026-04-21 18:16 | 56.61826 | -134.97963 | 7540 ft | 242 kts | 306° |
| 2026-04-21 18:16 | 56.62859 | -135.00373 | 7428 ft | 242 kts | 306° |
| 2026-04-21 18:16 | 56.63890 | -135.02782 | 7378 ft | 239 kts | 306° |
| 2026-04-21 18:16 | 56.64891 | -135.05108 | 7400 ft | 231 kts | 306° |
| 2026-04-21 18:17 | 56.65906 | -135.07489 | 7227 ft | 242 kts | 306° |
| 2026-04-21 18:17 | 56.66944 | -135.09974 | 7174 ft | 248 kts | 306° |
| 2026-04-21 18:17 | 56.67993 | -135.12454 | 6972 ft | 247 kts | 306° |
| 2026-04-21 18:17 | 56.69039 | -135.14917 | 6532 ft | 245 kts | 306° |
| 2026-04-21 18:18 | 56.70073 | -135.17348 | 5953 ft | 247 kts | 306° |
| 2026-04-21 18:18 | 56.71122 | -135.19819 | 5433 ft | 246 kts | 306° |
| 2026-04-21 18:18 | 56.72163 | -135.22281 | 4921 ft | 245 kts | 306° |
| 2026-04-21 18:18 | 56.73203 | -135.24741 | 4416 ft | 246 kts | 306° |
| 2026-04-21 18:19 | 56.74238 | -135.27194 | 4171 ft | 240 kts | 306° |
| 2026-04-21 18:19 | 56.75236 | -135.29558 | 4037 ft | 230 kts | 307° |
| 2026-04-21 18:19 | 56.76453 | -135.31329 | 3958 ft | 223 kts | 331° |
| 2026-04-21 18:19 | 56.77909 | -135.32327 | 3784 ft | 221 kts | 339° |
| 2026-04-21 18:20 | 56.79343 | -135.33119 | 3620 ft | 210 kts | 340° |
| 2026-04-21 18:20 | 56.80731 | -135.33882 | 3447 ft | 206 kts | 341° |
| 2026-04-21 18:20 | 56.82093 | -135.34645 | 3300 ft | 204 kts | 338° |
| 2026-04-21 18:20 | 56.83458 | -135.35418 | 3165 ft | 207 kts | 340° |
| 2026-04-21 18:21 | 56.84832 | -135.36207 | 3018 ft | 211 kts | 339° |
| 2026-04-21 18:21 | 56.86242 | -135.37021 | 2824 ft | 213 kts | 341° |
| 2026-04-21 18:21 | 56.87651 | -135.37834 | 2672 ft | 209 kts | 341° |
| 2026-04-21 18:21 | 56.89035 | -135.38341 | 2562 ft | 196 kts | 350° |
| 2026-04-21 18:22 | 56.90345 | -135.38687 | 2490 ft | 186 kts | 350° |
| 2026-04-21 18:22 | 56.91625 | -135.39029 | 2414 ft | 187 kts | 350° |
| 2026-04-21 18:22 | 56.92928 | -135.39384 | 2319 ft | 190 kts | 351° |
| 2026-04-21 18:22 | 56.94252 | -135.39708 | 2209 ft | 193 kts | 359° |
| 2026-04-21 18:23 | 56.95457 | -135.38940 | 2055 ft | 180 kts | 41° |
| 2026-04-21 18:23 | 56.96329 | -135.37410 | 1896 ft | 169 kts | 44° |
| 2026-04-21 18:23 | 56.97155 | -135.35947 | 1765 ft | 160 kts | 44° |
| 2026-04-21 18:23 | 56.97940 | -135.34554 | 1555 ft | 153 kts | 44° |
| 2026-04-21 18:24 | 56.98665 | -135.33263 | 1397 ft | 139 kts | 43° |
| 2026-04-21 18:24 | 56.99348 | -135.32081 | 1167 ft | 133 kts | 38° |
| 2026-04-21 18:24 | 57.00141 | -135.31229 | 956 ft | 132 kts | 15° |
| 2026-04-21 18:24 | 57.01036 | -135.31041 | 802 ft | 131 kts | 352° |
| 2026-04-21 18:25 | 57.01917 | -135.31488 | 654 ft | 133 kts | 333° |
| 2026-04-21 18:25 | 57.02661 | -135.32489 | 461 ft | 133 kts | 316° |
| 2026-04-21 18:25 | 57.03326 | -135.33679 | 259 ft | 134 kts | 316° |
| 2026-04-21 18:25 | 57.03991 | -135.34871 | 67 ft | 133 kts | 316° |
| 2026-04-21 18:26 | 57.04595 | -135.35952 | 36 ft | 98 kts | 316° |
| 2026-04-21 18:26 | 57.04974 | -135.36635 | 32 ft | 58 kts | 315° |
| 2026-04-21 18:26 | 57.05163 | -135.36976 | 35 ft | 30 kts | 315° |
| 2026-04-21 18:26 | 57.05284 | -135.37193 | 34 ft | 15 kts | 315° |
| 2026-04-21 18:27 | 57.05347 | -135.37261 | 34 ft | 8 kts | 9° |
| 2026-04-21 18:27 | 57.05391 | -135.37195 | 34 ft | 8 kts | 55° |
| 2026-04-21 18:27 | 57.05388 | -135.37100 | 34 ft | 8 kts | 127° |
| 2026-04-21 18:27 | 57.05349 | -135.37029 | 34 ft | 8 kts | 135° |
| 2026-04-21 18:28 | 57.05301 | -135.36943 | 34 ft | 11 kts | 135° |
| 2026-04-21 18:28 | 57.05243 | -135.36838 | 33 ft | 10 kts | 135° |
| 2026-04-21 18:28 | 57.05214 | -135.36764 | 34 ft | 6 kts | 94° |
| 2026-04-21 18:28 | 57.05224 | -135.36688 | 34 ft | 6 kts | 76° |
| 2026-04-21 18:29 | 57.05231 | -135.36632 | 34 ft | 4 kts | 76° |
| 2026-04-21 18:29 | 57.05235 | -135.36604 | 34 ft | 1 kts | 76° |
| 2026-04-21 18:29 | 57.05235 | -135.36602 | 34 ft | 0 kts | 76° |